Time;durP1;ratioP1;P1;durP2;ratioP2;P2;SDS_P1;SDS_P2;PMS_P1;PMS_P2;Temp;Humidity;BMP_temperature;BMP_pressure;BME280_temperature;BME280_humidity;BME280_pressure;Samples;Min_cycle;Max_cycle;Signal;HPM_P1;HPM_P2
2022/09/13 00:01:28;;;;;;;12.77;4.68;;;;;;;;;;5026674;28;20047;-68
2022/09/13 00:03:53;;;;;;;11.18;5.70;;;;;;;;;;5027046;28;20430;-68
2022/09/13 00:06:19;;;;;;;12.45;6.10;;;;;;;;;;5026652;28;20354;-67
2022/09/13 00:08:45;;;;;;;12.20;4.85;;;;;;;;;;5027700;28;20355;-67
2022/09/13 00:11:25;;;;;;;15.60;5.28;;;;;;;;;;5008691;28;20504;-67
2022/09/13 00:13:51;;;;;;;9.40;4.75;;;;;;;;;;5004457;28;20552;-67
2022/09/13 00:16:18;;;;;;;11.30;6.07;;;;;;;;;;5004614;28;20166;-67
2022/09/13 00:18:44;;;;;;;11.50;6.07;;;;;;;;;;5004859;28;20324;-67
2022/09/13 00:21:12;;;;;;;11.57;5.82;;;;;;;;;;5004711;28;20097;-67
2022/09/13 00:23:38;;;;;;;14.45;5.53;;;;;;;;;;5007688;28;20032;-67
2022/09/13 00:26:09;;;;;;;12.00;5.90;;;;;;;;;;5006137;28;20020;-67
2022/09/13 00:28:35;;;;;;;11.93;5.57;;;;;;;;;;5007003;28;20370;-67
2022/09/13 00:31:03;;;;;;;15.27;6.60;;;;;;;;;;5004605;28;20374;-67
2022/09/13 00:33:29;;;;;;;12.95;6.70;;;;;;;;;;5004329;28;20447;-67
2022/09/13 00:35:54;;;;;;;10.35;5.13;;;;;;;;;;5006382;28;20344;-67
2022/09/13 00:38:19;;;;;;;12.85;5.93;;;;;;;;;;5005797;28;20055;-67
2022/09/13 00:40:45;;;;;;;10.07;5.50;;;;;;;;;;5004284;28;20462;-67
2022/09/13 00:43:19;;;;;;;9.32;5.28;;;;;;;;;;5006226;28;20431;-67
2022/09/13 00:45:45;;;;;;;9.60;4.68;;;;;;;;;;5004467;28;20476;-67
2022/09/13 00:48:19;;;;;;;11.05;5.80;;;;;;;;;;5004310;28;20374;-67
2022/09/13 00:50:49;;;;;;;10.60;5.15;;;;;;;;;;5004347;28;20436;-67
2022/09/13 00:53:23;;;;;;;8.57;5.07;;;;;;;;;;5004517;28;20427;-67
2022/09/13 00:55:52;;;;;;;9.30;4.93;;;;;;;;;;5003924;28;20343;-67
2022/09/13 00:58:20;;;;;;;10.20;5.28;;;;;;;;;;5006456;28;20568;-67
2022/09/13 01:00:46;;;;;;;10.00;4.80;;;;;;;;;;5003399;28;20029;-67
2022/09/13 01:03:13;;;;;;;11.05;4.63;;;;;;;;;;5022319;28;20453;-67
2022/09/13 01:05:44;;;;;;;9.25;4.15;;;;;;;;;;5023910;28;20346;-67
2022/09/13 01:08:14;;;;;;;9.55;4.22;;;;;;;;;;5025811;28;20423;-67
2022/09/13 01:10:41;;;;;;;8.65;4.03;;;;;;;;;;5023741;28;20515;-67
2022/09/13 01:13:21;;;;;;;8.93;4.20;;;;;;;;;;5032367;28;20358;-67
2022/09/13 01:15:47;;;;;;;8.27;3.97;;;;;;;;;;5027026;28;20501;-67
2022/09/13 01:18:13;;;;;;;6.82;4.22;;;;;;;;;;5045184;28;20354;-67
2022/09/13 01:21:12;;;;;;;6.78;4.07;;;;;;;;;;5045363;28;20472;-67
2022/09/13 01:23:43;;;;;;;7.72;4.35;;;;;;;;;;5026976;28;20024;-67
2022/09/13 01:26:44;;;;;;;10.20;5.55;;;;;;;;;;5045274;28;20407;-67
2022/09/13 01:29:48;;;;;;;10.10;5.35;;;;;;;;;;5027026;28;20027;-67
2022/09/13 01:32:34;;;;;;;6.25;4.38;;;;;;;;;;5026539;28;20464;-67
2022/09/13 01:35:40;;;;;;;9.52;5.13;;;;;;;;;;5044858;28;20052;-67
2022/09/13 01:38:05;;;;;;;9.38;5.22;;;;;;;;;;5011707;28;20462;-67
2022/09/13 01:40:33;;;;;;;7.22;4.35;;;;;;;;;;5026577;28;20354;-67
2022/09/13 01:43:32;;;;;;;11.10;4.97;;;;;;;;;;5026647;28;20413;-67
2022/09/13 01:46:18;;;;;;;7.97;4.13;;;;;;;;;;5031647;28;20345;-67
2022/09/13 01:49:02;;;;;;;7.72;4.40;;;;;;;;;;5026695;28;20051;-67
2022/09/13 01:51:36;;;;;;;10.98;4.97;;;;;;;;;;5026346;28;20485;-67
2022/09/13 01:54:01;;;;;;;7.20;4.22;;;;;;;;;;5026641;28;20433;-67
2022/09/13 01:56:38;;;;;;;7.97;4.70;;;;;;;;;;5044810;28;20851;-67
2022/09/13 01:59:14;;;;;;;9.15;4.45;;;;;;;;;;5009479;28;20457;-67
2022/09/13 02:02:03;;;;;;;8.02;4.60;;;;;;;;;;5026129;28;20347;-67
2022/09/13 02:04:36;;;;;;;9.85;4.20;;;;;;;;;;5045232;28;20384;-67
2022/09/13 02:07:13;;;;;;;10.10;4.32;;;;;;;;;;5026360;28;20384;-67
2022/09/13 02:09:41;;;;;;;8.30;3.92;;;;;;;;;;5044420;28;20484;-67
2022/09/13 02:12:11;;;;;;;10.45;5.20;;;;;;;;;;5026045;28;20430;-67
2022/09/13 02:14:38;;;;;;;7.15;4.50;;;;;;;;;;5022278;28;20488;-67
2022/09/13 02:17:11;;;;;;;9.10;4.75;;;;;;;;;;5005761;28;20351;-67
2022/09/13 02:19:50;;;;;;;7.38;4.32;;;;;;;;;;5022509;28;20090;-67
2022/09/13 02:22:19;;;;;;;8.65;4.82;;;;;;;;;;5022497;28;20388;-67
2022/09/13 02:24:47;;;;;;;14.77;4.70;;;;;;;;;;5022405;28;20434;-67
2022/09/13 02:27:19;;;;;;;8.52;4.45;;;;;;;;;;5022709;28;20435;-67
2022/09/13 02:29:47;;;;;;;7.25;3.80;;;;;;;;;;5022535;28;20435;-67
2022/09/13 02:32:12;;;;;;;8.82;4.38;;;;;;;;;;5024892;28;20058;-67
2022/09/13 02:34:42;;;;;;;13.55;4.47;;;;;;;;;;5024851;28;20461;-67
2022/09/13 02:37:08;;;;;;;7.70;5.10;;;;;;;;;;5022254;28;20469;-67
2022/09/13 02:39:37;;;;;;;12.27;5.20;;;;;;;;;;5025636;28;20028;-68
2022/09/13 02:42:11;;;;;;;7.82;4.50;;;;;;;;;;5022652;28;20451;-67
2022/09/13 02:44:39;;;;;;;8.05;4.53;;;;;;;;;;5025218;28;20411;-67
2022/09/13 02:47:22;;;;;;;7.63;5.05;;;;;;;;;;5024229;28;20032;-68
2022/09/13 02:50:07;;;;;;;9.27;4.40;;;;;;;;;;5023428;28;20451;-67
2022/09/13 02:52:36;;;;;;;9.63;4.78;;;;;;;;;;5022107;28;20405;-67
2022/09/13 02:55:25;;;;;;;7.55;4.22;;;;;;;;;;5023806;28;20440;-67
2022/09/13 02:57:58;;;;;;;11.00;4.97;;;;;;;;;;5023598;28;20442;-67
2022/09/13 03:00:24;;;;;;;12.90;4.47;;;;;;;;;;5022167;28;20450;-67
2022/09/13 03:02:50;;;;;;;17.40;4.68;;;;;;;;;;5021939;28;20447;-67
2022/09/13 03:05:16;;;;;;;13.95;4.40;;;;;;;;;;5021888;28;20523;-67
2022/09/13 03:07:41;;;;;;;7.85;4.68;;;;;;;;;;5021945;28;20458;-67
2022/09/13 03:10:10;;;;;;;9.60;4.13;;;;;;;;;;5023397;28;20505;-67
2022/09/13 03:12:54;;;;;;;7.88;4.18;;;;;;;;;;5024511;28;20382;-67
2022/09/13 03:15:32;;;;;;;10.02;4.80;;;;;;;;;;5025175;28;20431;-67
2022/09/13 03:18:22;;;;;;;7.25;4.43;;;;;;;;;;5043406;28;20453;-67
2022/09/13 03:20:53;;;;;;;8.65;4.80;;;;;;;;;;5026102;28;20378;-67
2022/09/13 03:23:34;;;;;;;14.70;6.32;;;;;;;;;;5043402;28;20083;-67
2022/09/13 03:26:15;;;;;;;11.02;5.47;;;;;;;;;;5043326;28;20032;-67
2022/09/13 03:28:49;;;;;;;7.63;4.43;;;;;;;;;;5043253;28;20058;-67
2022/09/13 03:31:23;;;;;;;9.60;5.72;;;;;;;;;;5045412;28;20316;-67
2022/09/13 03:34:10;;;;;;;13.15;5.28;;;;;;;;;;5043834;28;20575;-67
2022/09/13 03:36:42;;;;;;;14.88;5.80;;;;;;;;;;5043443;28;20446;-67
2022/09/13 03:39:15;;;;;;;11.90;5.85;;;;;;;;;;5025209;28;20028;-67
2022/09/13 03:41:45;;;;;;;12.45;6.30;;;;;;;;;;5043264;28;20353;-67
2022/09/13 03:44:13;;;;;;;12.68;5.50;;;;;;;;;;5024914;28;20602;-68
2022/09/13 03:46:43;;;;;;;12.43;6.30;;;;;;;;;;5024892;28;20402;-67
2022/09/13 03:49:14;;;;;;;17.05;6.43;;;;;;;;;;5025335;28;20366;-68
2022/09/13 03:51:42;;;;;;;13.20;6.18;;;;;;;;;;5025930;28;20388;-67
2022/09/13 03:54:16;;;;;;;11.90;6.78;;;;;;;;;;5025093;28;20491;-67
2022/09/13 03:56:41;;;;;;;13.18;7.05;;;;;;;;;;5024731;28;20464;-67
2022/09/13 03:59:07;;;;;;;14.32;7.32;;;;;;;;;;5043616;28;20530;-67
2022/09/13 04:01:32;;;;;;;14.88;7.28;;;;;;;;;;5045412;28;20483;-67
2022/09/13 04:03:57;;;;;;;14.40;7.35;;;;;;;;;;5028722;28;20055;-67
2022/09/13 04:06:23;;;;;;;14.88;6.57;;;;;;;;;;5046779;28;20435;-67
2022/09/13 04:08:48;;;;;;;15.10;7.25;;;;;;;;;;5047020;28;20036;-67
2022/09/13 04:11:14;;;;;;;13.90;7.53;;;;;;;;;;5028192;28;20514;-67
2022/09/13 04:13:40;;;;;;;15.85;7.60;;;;;;;;;;5046248;28;20482;-67
2022/09/13 04:16:06;;;;;;;12.07;6.53;;;;;;;;;;5046560;28;20346;-67
2022/09/13 04:18:31;;;;;;;18.08;8.23;;;;;;;;;;5046950;28;20049;-67
2022/09/13 04:20:58;;;;;;;14.07;6.65;;;;;;;;;;5046379;28;20711;-67
2022/09/13 04:23:25;;;;;;;16.92;7.78;;;;;;;;;;5028049;28;20347;-67
2022/09/13 04:25:51;;;;;;;26.05;9.07;;;;;;;;;;5029088;28;20311;-67
2022/09/13 04:28:17;;;;;;;15.82;7.13;;;;;;;;;;5046342;28;20338;-67
2022/09/13 04:30:47;;;;;;;18.25;7.97;;;;;;;;;;5027960;28;20027;-67
2022/09/13 04:33:12;;;;;;;19.67;7.93;;;;;;;;;;5027830;28;20595;-67
2022/09/13 04:35:38;;;;;;;21.88;9.48;;;;;;;;;;5027845;28;20465;-67
2022/09/13 04:38:04;;;;;;;20.17;9.48;;;;;;;;;;5027866;28;20499;-67
2022/09/13 04:40:30;;;;;;;21.67;8.48;;;;;;;;;;5046101;28;20412;-67
2022/09/13 04:42:55;;;;;;;23.15;10.95;;;;;;;;;;5045869;28;20032;-67
2022/09/13 04:45:21;;;;;;;19.63;9.57;;;;;;;;;;5046053;28;20454;-67
2022/09/13 04:47:53;;;;;;;23.35;9.00;;;;;;;;;;5027650;28;20092;-67
2022/09/13 04:50:19;;;;;;;13.45;7.30;;;;;;;;;;5046074;28;20349;-67
2022/09/13 04:52:45;;;;;;;12.70;7.50;;;;;;;;;;5046312;28;20470;-67
2022/09/13 04:55:10;;;;;;;18.70;7.82;;;;;;;;;;5027650;28;20482;-67
2022/09/13 04:57:36;;;;;;;20.25;7.25;;;;;;;;;;5027473;28;20389;-67
2022/09/13 05:00:01;;;;;;;25.50;7.28;;;;;;;;;;5045809;28;20521;-67
2022/09/13 05:02:27;;;;;;;15.75;7.53;;;;;;;;;;5047348;28;20650;-67
2022/09/13 05:04:52;;;;;;;16.27;7.45;;;;;;;;;;5046194;28;20457;-67
2022/09/13 05:07:17;;;;;;;13.18;7.40;;;;;;;;;;5047951;28;20458;-67
2022/09/13 05:09:43;;;;;;;17.73;8.15;;;;;;;;;;5045993;28;20337;-67
2022/09/13 05:12:08;;;;;;;16.17;7.22;;;;;;;;;;5045648;28;20434;-67
2022/09/13 05:14:34;;;;;;;15.80;6.95;;;;;;;;;;5043985;28;20484;-66
2022/09/13 05:16:59;;;;;;;15.38;8.07;;;;;;;;;;5045188;28;20334;-67
2022/09/13 05:19:24;;;;;;;15.43;7.07;;;;;;;;;;5045923;28;20342;-67
2022/09/13 05:21:50;;;;;;;14.52;7.35;;;;;;;;;;5045821;28;20179;-67
2022/09/13 05:24:15;;;;;;;17.00;6.68;;;;;;;;;;5027143;28;20514;-68
2022/09/13 05:26:40;;;;;;;14.88;7.75;;;;;;;;;;5045400;28;20458;-67
2022/09/13 05:29:06;;;;;;;14.63;7.18;;;;;;;;;;5046978;28;20349;-67
2022/09/13 05:31:34;;;;;;;12.13;6.82;;;;;;;;;;5027088;28;20426;-67
2022/09/13 05:34:02;;;;;;;15.63;7.20;;;;;;;;;;5027635;28;20426;-67
2022/09/13 05:36:28;;;;;;;12.90;6.70;;;;;;;;;;5046416;28;20316;-67
2022/09/13 05:38:54;;;;;;;12.32;7.55;;;;;;;;;;5044904;28;20350;-67
2022/09/13 05:41:19;;;;;;;14.57;7.78;;;;;;;;;;5026513;28;20454;-67
2022/09/13 05:43:45;;;;;;;14.52;7.82;;;;;;;;;;5045825;28;20059;-67
2022/09/13 05:46:12;;;;;;;17.17;8.25;;;;;;;;;;5027555;28;20134;-67
2022/09/13 05:48:38;;;;;;;13.25;7.57;;;;;;;;;;5026637;28;20464;-67
2022/09/13 05:51:04;;;;;;;18.35;8.55;;;;;;;;;;5026139;28;20438;-67
2022/09/13 05:53:30;;;;;;;14.82;7.53;;;;;;;;;;5044581;28;20480;-67
2022/09/13 05:55:56;;;;;;;14.45;8.00;;;;;;;;;;5046491;28;20461;-67
2022/09/13 05:58:22;;;;;;;20.13;7.97;;;;;;;;;;5044530;28;20376;-67
2022/09/13 06:00:55;;;;;;;16.45;7.72;;;;;;;;;;5044403;28;20446;-66
2022/09/13 06:03:21;;;;;;;16.67;8.20;;;;;;;;;;5026142;28;20412;-67
2022/09/13 06:05:46;;;;;;;20.08;9.70;;;;;;;;;;5044468;28;20027;-67
2022/09/13 06:08:12;;;;;;;14.77;7.40;;;;;;;;;;5045691;28;20445;-66
2022/09/13 06:10:37;;;;;;;13.93;7.97;;;;;;;;;;5037066;28;20032;-67
2022/09/13 06:13:02;;;;;;;15.18;7.00;;;;;;;;;;5043646;28;20530;-67
2022/09/13 06:15:28;;;;;;;19.52;8.60;;;;;;;;;;5043891;28;20054;-67
2022/09/13 06:17:53;;;;;;;16.85;8.75;;;;;;;;;;5044207;28;20031;-67
2022/09/13 06:20:18;;;;;;;13.32;7.45;;;;;;;;;;5044284;28;20356;-66
2022/09/13 06:22:44;;;;;;;19.75;8.90;;;;;;;;;;5044038;28;20387;-67
2022/09/13 06:25:09;;;;;;;16.23;8.27;;;;;;;;;;5025486;28;20050;-67
2022/09/13 06:27:34;;;;;;;17.88;9.05;;;;;;;;;;5043876;28;20402;-66
2022/09/13 06:30:00;;;;;;;15.77;8.07;;;;;;;;;;5043929;28;20450;-67
2022/09/13 06:32:25;;;;;;;14.25;7.80;;;;;;;;;;5045523;28;20394;-67
2022/09/13 06:34:51;;;;;;;19.58;9.48;;;;;;;;;;5044155;28;20449;-67
2022/09/13 06:37:16;;;;;;;14.52;7.30;;;;;;;;;;5044033;28;20696;-67
2022/09/13 06:39:42;;;;;;;16.95;7.88;;;;;;;;;;5043985;28;20300;-66
2022/09/13 06:42:07;;;;;;;13.02;7.43;;;;;;;;;;5044111;28;20469;-67
2022/09/13 06:44:32;;;;;;;15.77;8.35;;;;;;;;;;5043785;28;20575;-67
2022/09/13 06:46:57;;;;;;;13.85;7.88;;;;;;;;;;5043711;28;20031;-67
2022/09/13 06:49:23;;;;;;;17.15;9.25;;;;;;;;;;5045259;28;20445;-67
2022/09/13 06:51:48;;;;;;;17.60;9.07;;;;;;;;;;5043666;28;20453;-67
2022/09/13 06:54:14;;;;;;;15.00;6.75;;;;;;;;;;5043756;28;20346;-67
2022/09/13 06:56:39;;;;;;;23.90;8.48;;;;;;;;;;5025690;28;20410;-67
2022/09/13 06:59:08;;;;;;;18.92;9.63;;;;;;;;;;5044256;28;20299;-66
2022/09/13 07:01:36;;;;;;;19.67;9.55;;;;;;;;;;5025306;28;20427;-67
2022/09/13 07:04:07;;;;;;;18.73;10.40;;;;;;;;;;5025152;28;20461;-66
2022/09/13 07:06:35;;;;;;;17.02;10.15;;;;;;;;;;5025065;28;20269;-67
2022/09/13 07:09:02;;;;;;;20.20;10.10;;;;;;;;;;5025343;28;20338;-67
2022/09/13 07:11:30;;;;;;;21.25;9.35;;;;;;;;;;5025403;28;20259;-67
2022/09/13 07:13:57;;;;;;;25.15;9.27;;;;;;;;;;5021506;28;20479;-67
2022/09/13 07:16:25;;;;;;;14.57;8.65;;;;;;;;;;5021938;28;20443;-66
2022/09/13 07:18:55;;;;;;;18.85;9.70;;;;;;;;;;5006732;28;20324;-67
2022/09/13 07:21:22;;;;;;;18.90;10.10;;;;;;;;;;5022398;28;20494;-67
2022/09/13 07:23:47;;;;;;;19.13;8.48;;;;;;;;;;5023271;28;20717;-66
2022/09/13 07:26:13;;;;;;;16.67;8.90;;;;;;;;;;5021748;28;20510;-67
2022/09/13 07:28:43;;;;;;;16.02;9.45;;;;;;;;;;5025463;28;20423;-67
2022/09/13 07:31:13;;;;;;;22.27;8.35;;;;;;;;;;5021636;28;20435;-67
2022/09/13 07:33:40;;;;;;;18.20;8.32;;;;;;;;;;5022814;28;20054;-67
2022/09/13 07:36:06;;;;;;;15.18;8.10;;;;;;;;;;5022197;28;20463;-67
2022/09/13 07:38:32;;;;;;;12.77;7.72;;;;;;;;;;5025521;28;20024;-67
2022/09/13 07:40:59;;;;;;;14.30;7.45;;;;;;;;;;5025849;28;20028;-67
2022/09/13 07:43:25;;;;;;;14.48;7.63;;;;;;;;;;5026405;28;20405;-67
2022/09/13 07:45:57;;;;;;;18.88;7.25;;;;;;;;;;5024491;28;20363;-67
2022/09/13 07:48:23;;;;;;;12.27;7.30;;;;;;;;;;5026325;28;20751;-67
2022/09/13 07:51:02;;;;;;;18.98;8.13;;;;;;;;;;5025535;28;20471;-67
2022/09/13 07:53:29;;;;;;;15.63;7.82;;;;;;;;;;5024488;28;20398;-67
2022/09/13 07:56:00;;;;;;;14.57;7.35;;;;;;;;;;5026135;28;20338;-67
2022/09/13 07:58:25;;;;;;;14.35;7.35;;;;;;;;;;5025744;28;20028;-67
2022/09/13 08:00:51;;;;;;;13.85;6.57;;;;;;;;;;5025731;28;20047;-67
2022/09/13 08:03:16;;;;;;;9.55;5.55;;;;;;;;;;5025591;28;20342;-67
2022/09/13 08:05:41;;;;;;;12.45;7.03;;;;;;;;;;5025537;28;20036;-67
2022/09/13 08:08:07;;;;;;;11.73;5.82;;;;;;;;;;5025543;28;20320;-67
2022/09/13 08:10:33;;;;;;;10.43;5.95;;;;;;;;;;5027682;28;20520;-67
2022/09/13 08:12:59;;;;;;;11.88;6.53;;;;;;;;;;5029679;28;20495;-67
2022/09/13 08:15:24;;;;;;;8.63;5.63;;;;;;;;;;5045601;28;20485;-67
2022/09/13 08:17:49;;;;;;;9.07;5.25;;;;;;;;;;5045789;28;20304;-66
2022/09/13 08:20:15;;;;;;;9.13;5.68;;;;;;;;;;5045159;28;20420;-67
2022/09/13 08:22:40;;;;;;;12.25;5.68;;;;;;;;;;5046946;28;20458;-67
2022/09/13 08:25:06;;;;;;;8.57;5.50;;;;;;;;;;5045888;28;20409;-67
2022/09/13 08:27:31;;;;;;;13.65;6.38;;;;;;;;;;5046170;28;20505;-67
2022/09/13 08:29:56;;;;;;;11.75;6.43;;;;;;;;;;5046669;28;20699;-67
2022/09/13 08:32:22;;;;;;;9.55;5.68;;;;;;;;;;5046248;28;20497;-67
2022/09/13 08:34:47;;;;;;;10.38;5.18;;;;;;;;;;5046277;28;20336;-67
2022/09/13 08:37:12;;;;;;;12.20;5.28;;;;;;;;;;5046044;28;20521;-67
2022/09/13 08:39:38;;;;;;;10.15;5.20;;;;;;;;;;5046147;28;20521;-67
2022/09/13 08:42:44;;;;;;;8.02;5.00;;;;;;;;;;5047481;28;20380;-67
2022/09/13 08:45:10;;;;;;;11.20;5.05;;;;;;;;;;4996365;28;20035;-67
2022/09/13 08:48:14;;;;;;;8.80;5.10;;;;;;;;;;5046698;28;20110;-67
2022/09/13 08:50:41;;;;;;;11.25;4.35;;;;;;;;;;4995747;28;20342;-67
2022/09/13 08:53:19;;;;;;;7.45;4.47;;;;;;;;;;5027547;28;20046;-67
2022/09/13 08:55:57;;;;;;;9.60;4.07;;;;;;;;;;5028101;28;20488;-67
2022/09/13 08:58:40;;;;;;;11.27;4.43;;;;;;;;;;5027622;28;20707;-66
2022/09/13 09:01:22;;;;;;;9.40;3.83;;;;;;;;;;5045551;28;20324;-67
2022/09/13 09:04:15;;;;;;;16.08;4.50;;;;;;;;;;5045540;28;20027;-67
2022/09/13 09:06:41;;;;;;;6.25;3.80;;;;;;;;;;5045660;28;20384;-67
2022/09/13 09:09:13;;;;;;;6.35;3.65;;;;;;;;;;5027354;28;20411;-67
2022/09/13 09:12:00;;;;;;;9.50;3.50;;;;;;;;;;5027440;28;20465;-67
2022/09/13 09:14:38;;;;;;;6.55;3.35;;;;;;;;;;5045054;28;20130;-66
2022/09/13 09:17:14;;;;;;;11.93;4.03;;;;;;;;;;5027159;28;20020;-67
2022/09/13 09:19:43;;;;;;;6.07;3.50;;;;;;;;;;5026895;28;20057;-67
2022/09/13 09:22:20;;;;;;;5.20;3.13;;;;;;;;;;5010696;28;20362;-67
2022/09/13 09:24:49;;;;;;;6.82;4.00;;;;;;;;;;5046204;28;20547;-67
2022/09/13 09:27:17;;;;;;;11.25;4.00;;;;;;;;;;5045216;28;20019;-67
2022/09/13 09:29:43;;;;;;;5.40;3.22;;;;;;;;;;5045247;28;20530;-67
2022/09/13 09:32:27;;;;;;;5.13;3.00;;;;;;;;;;5027045;28;20445;-67
2022/09/13 09:35:11;;;;;;;9.57;3.30;;;;;;;;;;5026427;28;20685;-67
2022/09/13 09:37:37;;;;;;;5.22;3.25;;;;;;;;;;5045509;28;20467;-67
2022/09/13 09:40:09;;;;;;;5.43;2.95;;;;;;;;;;5026968;28;20430;-68
2022/09/13 09:42:41;;;;;;;5.78;2.72;;;;;;;;;;5026378;28;20456;-67
2022/09/13 09:45:15;;;;;;;5.10;2.33;;;;;;;;;;5044452;28;20466;-66
2022/09/13 09:47:45;;;;;;;4.82;2.78;;;;;;;;;;5043117;28;20507;-67
2022/09/13 09:50:17;;;;;;;5.53;2.15;;;;;;;;;;5043313;28;20468;-66
2022/09/13 09:53:02;;;;;;;3.55;2.60;;;;;;;;;;5026029;28;20394;-67
2022/09/13 09:55:28;;;;;;;3.80;2.50;;;;;;;;;;5027066;28;20466;-66
2022/09/13 09:57:54;;;;;;;6.07;2.40;;;;;;;;;;5044539;28;20460;-66
2022/09/13 10:00:22;;;;;;;3.78;2.30;;;;;;;;;;5043756;28;20505;-67
2022/09/13 10:02:51;;;;;;;7.32;2.80;;;;;;;;;;5044094;28;20503;-67
2022/09/13 10:05:19;;;;;;;10.18;2.20;;;;;;;;;;5026084;28;20445;-66
2022/09/13 10:07:52;;;;;;;3.85;2.13;;;;;;;;;;5026680;28;20050;-66
2022/09/13 10:10:35;;;;;;;2.40;1.90;;;;;;;;;;5026436;28;20015;-67
2022/09/13 10:13:01;;;;;;;7.32;1.80;;;;;;;;;;5044101;28;20469;-67
2022/09/13 10:15:31;;;;;;;5.10;2.30;;;;;;;;;;5025627;28;20461;-67
2022/09/13 10:18:15;;;;;;;5.38;2.08;;;;;;;;;;5026641;28;20374;-67
2022/09/13 10:20:40;;;;;;;5.72;2.42;;;;;;;;;;5026314;28;20382;-66
2022/09/13 10:23:15;;;;;;;4.80;2.00;;;;;;;;;;5044878;28;20046;-67
2022/09/13 10:25:42;;;;;;;3.58;1.92;;;;;;;;;;5044894;28;20327;-67
2022/09/13 10:28:13;;;;;;;5.55;2.30;;;;;;;;;;5025632;28;20678;-67
2022/09/13 10:30:58;;;;;;;4.05;2.35;;;;;;;;;;5025490;28;20369;-67
2022/09/13 10:33:29;;;;;;;2.55;1.50;;;;;;;;;;5043795;28;20310;-66
2022/09/13 10:35:58;;;;;;;7.38;2.10;;;;;;;;;;5026294;28;20460;-67
2022/09/13 10:38:50;;;;;;;2.83;1.92;;;;;;;;;;5043752;28;20461;-67
2022/09/13 10:41:23;;;;;;;5.57;2.17;;;;;;;;;;5045218;28;20414;-67
2022/09/13 10:43:59;;;;;;;2.63;2.15;;;;;;;;;;5026062;28;20326;-67
2022/09/13 10:46:25;;;;;;;5.18;2.22;;;;;;;;;;5043676;28;20046;-66
2022/09/13 10:48:56;;;;;;;6.40;2.22;;;;;;;;;;5025183;28;20511;-67
2022/09/13 10:51:24;;;;;;;6.40;2.25;;;;;;;;;;5045073;28;20311;-67
2022/09/13 10:53:50;;;;;;;4.47;2.10;;;;;;;;;;5043641;28;20339;-67
2022/09/13 10:56:24;;;;;;;3.97;2.00;;;;;;;;;;5043327;28;20371;-67
2022/09/13 10:58:50;;;;;;;7.28;1.98;;;;;;;;;;5025114;28;20430;-67
2022/09/13 11:01:41;;;;;;;9.98;2.08;;;;;;;;;;5044256;28;20334;-67
2022/09/13 11:04:48;;;;;;;6.32;2.47;;;;;;;;;;5025491;28;20342;-67
2022/09/13 11:07:36;;;;;;;2.75;1.48;;;;;;;;;;4941830;28;20460;-67
2022/09/13 11:10:30;;;;;;;3.30;1.65;;;;;;;;;;5009770;28;20509;-67
2022/09/13 11:13:06;;;;;;;3.10;1.52;;;;;;;;;;4987683;28;20362;-67
2022/09/13 11:15:58;;;;;;;3.10;2.03;;;;;;;;;;5025525;28;20435;-67
2022/09/13 11:18:42;;;;;;;2.53;1.83;;;;;;;;;;5025748;28;20462;-67
2022/09/13 11:22:13;;;;;;;3.75;1.80;;;;;;;;;;5025999;28;20024;-67
2022/09/13 11:25:23;;;;;;;3.97;1.77;;;;;;;;;;4948453;28;20444;-67
2022/09/13 11:28:12;;;;;;;2.30;1.23;;;;;;;;;;4926186;28;20038;-67
2022/09/13 11:31:13;;;;;;;2.20;1.48;;;;;;;;;;5026735;28;20391;-67
2022/09/13 11:33:51;;;;;;;4.95;1.50;;;;;;;;;;5025312;28;20327;-67
2022/09/13 11:36:38;;;;;;;2.30;1.60;;;;;;;;;;5026698;28;20036;-67
2022/09/13 11:39:04;;;;;;;2.72;1.50;;;;;;;;;;5025481;28;20024;-67
2022/09/13 11:41:51;;;;;;;1.70;1.20;;;;;;;;;;5027320;28;20450;-67
2022/09/13 11:44:42;;;;;;;2.00;1.52;;;;;;;;;;5027580;28;20031;-67
2022/09/13 11:47:33;;;;;;;4.28;2.15;;;;;;;;;;5026222;28;20553;-67
2022/09/13 11:50:16;;;;;;;2.95;1.73;;;;;;;;;;5026937;28;20347;-67
2022/09/13 11:53:09;;;;;;;2.17;1.40;;;;;;;;;;5027120;28;20427;-67
2022/09/13 11:55:41;;;;;;;1.77;1.35;;;;;;;;;;5026711;28;20028;-67
2022/09/13 11:58:24;;;;;;;4.20;1.65;;;;;;;;;;5025126;28;20480;-67
2022/09/13 12:00:55;;;;;;;1.52;1.40;;;;;;;;;;5025936;28;20427;-67
2022/09/13 12:03:30;;;;;;;4.32;1.70;;;;;;;;;;5026429;28;20325;-67
2022/09/13 12:06:00;;;;;;;1.60;1.33;;;;;;;;;;5025165;28;20458;-67
2022/09/13 12:08:31;;;;;;;7.03;1.80;;;;;;;;;;5026608;28;20392;-67
2022/09/13 12:11:02;;;;;;;9.02;1.48;;;;;;;;;;5026265;28;20505;-67
2022/09/13 12:13:34;;;;;;;2.72;1.60;;;;;;;;;;5035562;28;20542;-67
2022/09/13 12:16:04;;;;;;;2.00;1.50;;;;;;;;;;5027927;28;20477;-67
2022/09/13 12:18:43;;;;;;;2.67;1.83;;;;;;;;;;5047347;28;20459;-66
2022/09/13 12:21:22;;;;;;;2.15;1.58;;;;;;;;;;5046193;28;20503;-67
2022/09/13 12:23:59;;;;;;;1.60;1.30;;;;;;;;;;5028220;28;20114;-67
2022/09/13 12:27:02;;;;;;;1.55;1.25;;;;;;;;;;5046281;28;20428;-66
2022/09/13 12:29:48;;;;;;;3.20;1.60;;;;;;;;;;5047314;28;20435;-67
2022/09/13 12:32:14;;;;;;;3.97;1.70;;;;;;;;;;5027888;28;20342;-66
2022/09/13 12:34:44;;;;;;;2.05;1.42;;;;;;;;;;5028264;28;20334;-67
2022/09/13 12:37:10;;;;;;;2.08;1.45;;;;;;;;;;5046840;28;20361;-67
2022/09/13 12:40:10;;;;;;;2.15;1.73;;;;;;;;;;5044354;28;20024;-67
2022/09/13 12:42:55;;;;;;;2.28;1.55;;;;;;;;;;5045877;28;20027;-67
2022/09/13 12:45:33;;;;;;;3.97;1.70;;;;;;;;;;5027315;28;20024;-67
2022/09/13 12:48:17;;;;;;;4.32;1.50;;;;;;;;;;5046225;28;20028;-67
2022/09/13 12:51:00;;;;;;;3.40;2.10;;;;;;;;;;5045863;28;20331;-66
2022/09/13 12:53:44;;;;;;;3.72;2.22;;;;;;;;;;5045957;28;20458;-67
2022/09/13 12:56:41;;;;;;;5.35;1.70;;;;;;;;;;5027286;28;20449;-66
2022/09/13 12:59:15;;;;;;;1.73;1.42;;;;;;;;;;5045941;28;20461;-66
2022/09/13 13:01:45;;;;;;;5.78;1.92;;;;;;;;;;5045537;28;20450;-67
2022/09/13 13:04:24;;;;;;;4.10;1.45;;;;;;;;;;5028576;28;20365;-67
2022/09/13 13:06:59;;;;;;;;;;;;;;;;;;5027622;28;20023;-67
2022/09/13 13:09:41;;;;;;;2.75;1.70;;;;;;;;;;5027249;28;20349;-67
2022/09/13 13:12:08;;;;;;;2.00;1.50;;;;;;;;;;5047533;28;20032;-67
2022/09/13 13:14:40;;;;;;;2.60;1.58;;;;;;;;;;5023535;28;20466;-67
2022/09/13 13:17:36;;;;;;;3.20;1.60;;;;;;;;;;5026421;28;20358;-67
2022/09/13 13:20:44;;;;;;;5.03;1.92;;;;;;;;;;5025333;28;20028;-67
2022/09/13 13:23:34;;;;;;;2.08;1.63;;;;;;;;;;5017201;28;20370;-67
2022/09/13 13:26:12;;;;;;;3.85;1.80;;;;;;;;;;5024910;28;20370;-67
2022/09/13 13:28:43;;;;;;;2.28;1.70;;;;;;;;;;5024947;28;20485;-67
2022/09/13 13:31:28;;;;;;;4.53;1.70;;;;;;;;;;5023453;28;20366;-67
2022/09/13 13:34:13;;;;;;;2.95;1.70;;;;;;;;;;5004588;28;20386;-67
2022/09/13 13:36:39;;;;;;;3.53;1.80;;;;;;;;;;5021787;28;20512;-67
2022/09/13 13:39:09;;;;;;;4.82;1.70;;;;;;;;;;5023949;28;20450;-67
2022/09/13 13:41:38;;;;;;;2.25;1.60;;;;;;;;;;5024973;28;20396;-67
2022/09/13 13:44:19;;;;;;;3.30;1.85;;;;;;;;;;5023206;28;20123;-67
2022/09/13 13:46:46;;;;;;;2.30;1.60;;;;;;;;;;5024534;28;20359;-67
2022/09/13 13:49:29;;;;;;;5.78;2.22;;;;;;;;;;5022342;28;20055;-67
2022/09/13 13:52:14;;;;;;;3.20;1.83;;;;;;;;;;5023491;28;20450;-67
2022/09/13 13:54:48;;;;;;;2.97;2.20;;;;;;;;;;5022235;28;20430;-65
2022/09/13 13:57:19;;;;;;;6.03;1.90;;;;;;;;;;5023393;28;20046;-67
2022/09/13 13:59:45;;;;;;;5.90;2.22;;;;;;;;;;5005630;28;20399;-67
2022/09/13 14:02:11;;;;;;;3.70;2.10;;;;;;;;;;5006172;28;20453;-68
2022/09/13 14:04:51;;;;;;;3.20;1.95;;;;;;;;;;5005639;28;20399;-67
2022/09/13 14:07:30;;;;;;;9.98;2.95;;;;;;;;;;5022733;28;20028;-67
2022/09/13 14:09:57;;;;;;;;;;;;;;;;;;5006424;28;20343;-67
2022/09/13 14:12:54;;;;;;;3.97;2.60;;;;;;;;;;5005095;28;19981;-67
2022/09/13 14:15:34;;;;;;;4.50;2.00;;;;;;;;;;5023476;28;20371;-67
2022/09/13 14:18:34;;;;;;;3.30;2.13;;;;;;;;;;5024060;28;20434;-67
2022/09/13 14:21:02;;;;;;;4.68;1.95;;;;;;;;;;5005680;28;20442;-67
2022/09/13 14:23:29;;;;;;;6.47;1.70;;;;;;;;;;5005800;28;20698;-68
2022/09/13 14:25:58;;;;;;;1.95;1.63;;;;;;;;;;5005799;28;20016;-67
2022/09/13 14:28:24;;;;;;;2.30;1.80;;;;;;;;;;5005928;28;20389;-68
2022/09/13 14:30:54;;;;;;;5.45;2.20;;;;;;;;;;5023267;28;20114;-67
2022/09/13 14:33:32;;;;;;;4.35;2.22;;;;;;;;;;5005276;28;20395;-67
2022/09/13 14:36:03;;;;;;;5.53;2.60;;;;;;;;;;5006022;28;20466;-67
2022/09/13 14:38:33;;;;;;;3.60;2.55;;;;;;;;;;5009916;28;20362;-68
2022/09/13 14:41:12;;;;;;;4.60;2.35;;;;;;;;;;5028539;28;20054;-68
2022/09/13 14:43:38;;;;;;;4.40;1.92;;;;;;;;;;5009946;28;20427;-68
2022/09/13 14:46:10;;;;;;;2.17;1.67;;;;;;;;;;5027910;28;20408;-68
2022/09/13 14:48:45;;;;;;;3.30;1.90;;;;;;;;;;5009986;28;20420;-67
2022/09/13 14:51:17;;;;;;;4.60;2.53;;;;;;;;;;5009803;28;20024;-67
2022/09/13 14:53:45;;;;;;;4.53;2.17;;;;;;;;;;5027916;28;20320;-67
2022/09/13 14:56:15;;;;;;;3.70;2.15;;;;;;;;;;5027619;28;20402;-67
2022/09/13 14:58:44;;;;;;;3.42;2.08;;;;;;;;;;5010022;28;20397;-68
2022/09/13 15:01:10;;;;;;;;;;;;;;;;;;5010319;28;20080;-67
2022/09/13 15:03:40;;;;;;;3.17;1.77;;;;;;;;;;5027618;28;20276;-67
2022/09/13 15:06:06;;;;;;;3.05;2.00;;;;;;;;;;5027441;28;20343;-67
2022/09/13 15:08:31;;;;;;;3.90;2.15;;;;;;;;;;5027728;28;20384;-68
2022/09/13 15:10:57;;;;;;;5.47;2.10;;;;;;;;;;5028349;28;20098;-67